Time;durP1;ratioP1;P1;durP2;ratioP2;P2;SDS_P1;SDS_P2;PMS_P1;PMS_P2;Temp;Humidity;BMP_temperature;BMP_pressure;BME280_temperature;BME280_humidity;BME280_pressure;Samples;Min_cycle;Max_cycle;Signal;HPM_P1;HPM_P2
2022/01/27 00:05:46;;;;;;;85.03;24.17;;;;;;;-1.53;100.00;96591.94;4989213;28;20046;-76
2022/01/27 00:08:16;;;;;;;81.22;23.92;;;;;;;-1.57;100.00;96596.63;4990283;28;20066;-76
2022/01/27 00:13:13;;;;;;;78.07;23.85;;;;;;;-1.33;100.00;96587.97;4998863;28;20170;-76
2022/01/27 00:15:43;;;;;;;76.72;25.42;;;;;;;-1.46;100.00;96592.88;5000373;28;20038;-77
2022/01/27 00:18:17;;;;;;;81.05;25.30;;;;;;;-1.38;100.00;96600.56;4983499;28;20042;-76
2022/01/27 00:20:48;;;;;;;74.57;23.73;;;;;;;-1.34;100.00;96595.91;4987452;28;20120;-76
2022/01/27 00:23:14;;;;;;;74.05;24.75;;;;;;;-1.48;100.00;96579.31;5010508;28;20046;-76
2022/01/27 00:25:40;;;;;;;73.60;22.58;;;;;;;-1.54;100.00;96580.00;4989240;28;20595;-76
2022/01/27 00:28:06;;;;;;;79.88;25.17;;;;;;;-1.57;100.00;96579.38;4990960;28;20038;-77
2022/01/27 00:30:39;;;;;;;76.63;24.67;;;;;;;-1.60;100.00;96582.25;4990007;28;20100;-76
2022/01/27 00:33:05;;;;;;;75.95;23.52;;;;;;;-1.48;100.00;96574.16;4989465;28;20420;-77
2022/01/27 00:35:31;;;;;;;75.10;25.25;;;;;;;-1.43;100.00;96571.88;4988120;28;20194;-77
2022/01/27 00:37:57;;;;;;;72.07;22.58;;;;;;;-1.47;100.00;96565.44;4989557;28;20105;-76
2022/01/27 00:40:23;;;;;;;71.25;22.63;;;;;;;-1.63;100.00;96574.84;4988042;28;20042;-77
2022/01/27 00:42:49;;;;;;;92.72;26.02;;;;;;;-1.74;100.00;96580.34;4989648;28;20061;-77
2022/01/27 00:45:14;;;;;;;78.10;25.48;;;;;;;-1.63;100.00;96590.34;4988126;28;20049;-76
2022/01/27 00:47:40;;;;;;;77.10;24.88;;;;;;;-1.65;100.00;96589.72;4999510;28;20048;-76
2022/01/27 00:50:06;;;;;;;90.82;25.02;;;;;;;-1.64;100.00;96593.09;4973573;28;20121;-76
2022/01/27 00:52:54;;;;;;;82.35;24.23;;;;;;;-1.70;100.00;96586.81;4996679;28;20050;-77
2022/01/27 00:55:22;;;;;;;74.35;23.90;;;;;;;-1.62;100.00;96599.69;5003382;28;20046;-77
2022/01/27 01:00:26;;;;;;;81.18;24.83;;;;;;;-1.51;100.00;96592.56;5004642;28;20050;-77
2022/01/27 01:02:59;;;;;;;78.13;23.35;;;;;;;-1.44;100.00;96581.41;4995791;28;20508;-77
2022/01/27 01:09:27;;;;;;;73.70;23.10;;;;;;;-1.60;100.00;96592.56;4998589;28;20053;-77
2022/01/27 01:16:34;;;;;;;78.15;25.20;;;;;;;-1.55;100.00;96576.63;4993288;28;20050;-77
2022/01/27 01:33:08;;;;;;;78.00;22.38;;;;;;;-1.61;100.00;96569.50;4990138;28;20038;-76
2022/01/27 01:35:35;;;;;;;77.95;23.00;;;;;;;-1.68;100.00;96559.06;4988471;28;20059;-77
2022/01/27 01:38:01;;;;;;;73.72;23.45;;;;;;;-1.71;100.00;96564.56;5020240;28;20046;-77
2022/01/27 01:40:27;;;;;;;78.57;23.95;;;;;;;-1.78;100.00;96569.56;5008761;28;20158;-77
2022/01/27 01:42:53;;;;;;;82.85;24.27;;;;;;;-1.80;100.00;96581.03;4992943;28;20042;-77
2022/01/27 01:45:20;;;;;;;78.75;25.02;;;;;;;-1.82;100.00;96593.31;4993336;28;20052;-77
2022/01/27 01:47:47;;;;;;;71.50;24.30;;;;;;;-1.99;100.00;96588.16;4984188;28;20043;-76
2022/01/27 01:50:14;;;;;;;76.40;23.65;;;;;;;-2.02;100.00;96591.06;4987814;28;20051;-77
2022/01/27 01:52:40;;;;;;;82.40;26.42;;;;;;;-1.90;100.00;96586.34;5002637;28;20049;-77
2022/01/27 01:55:07;;;;;;;83.13;24.67;;;;;;;-1.92;100.00;96583.94;5003276;28;20038;-76
2022/01/27 01:57:34;;;;;;;71.90;24.23;;;;;;;-1.97;100.00;96583.66;4973805;28;20138;-77
2022/01/27 02:00:00;;;;;;;71.30;23.90;;;;;;;-1.98;100.00;96579.44;4981544;28;20045;-77
2022/01/27 02:02:25;;;;;;;79.10;25.10;;;;;;;-2.00;100.00;96576.22;5007082;28;20046;-77
2022/01/27 02:04:53;;;;;;;81.28;24.08;;;;;;;-2.03;100.00;96571.38;4988093;28;20038;-76
2022/01/27 02:18:31;;;;;;;84.53;25.20;;;;;;;-2.74;100.00;96568.50;4982833;28;20114;-76
2022/01/27 02:20:56;;;;;;;82.88;24.38;;;;;;;-2.64;100.00;96571.72;4992308;28;20042;-76
2022/01/27 02:23:22;;;;;;;80.22;25.35;;;;;;;-2.45;100.00;96567.22;4992783;28;20053;-76
2022/01/27 02:25:48;;;;;;;75.43;23.85;;;;;;;-2.36;100.00;96561.09;4991869;28;20046;-76
2022/01/27 02:28:13;;;;;;;80.68;24.02;;;;;;;-2.28;100.00;96555.94;5000906;28;20517;-75
2022/01/27 02:30:39;;;;;;;80.00;24.08;;;;;;;-2.28;100.00;96553.38;5013230;28;20046;-75
2022/01/27 02:33:05;;;;;;;77.35;24.42;;;;;;;-2.30;100.00;96547.56;4993758;28;20125;-76
2022/01/27 02:35:33;;;;;;;72.68;23.75;;;;;;;-2.33;100.00;96545.31;4991366;28;20467;-76
2022/01/27 02:37:58;;;;;;;80.55;22.73;;;;;;;-2.38;100.00;96542.41;4991433;28;20054;-75
2022/01/27 02:40:26;;;;;;;77.13;24.25;;;;;;;-2.45;100.00;96536.31;4991581;28;20096;-75
2022/01/27 02:42:53;;;;;;;92.65;26.33;;;;;;;-2.43;100.00;96534.34;4991334;28;20045;-75
2022/01/27 02:45:31;;;;;;;70.28;24.23;;;;;;;-2.49;100.00;96540.16;4990839;28;20078;-75
2022/01/27 02:47:57;;;;;;;82.95;23.52;;;;;;;-2.64;100.00;96534.84;4990010;28;20053;-76
2022/01/27 02:50:23;;;;;;;80.28;23.67;;;;;;;-2.57;100.00;96528.09;4993902;28;20042;-76
2022/01/27 02:52:48;;;;;;;72.85;23.40;;;;;;;-2.61;100.00;96535.31;5000653;28;20424;-76
2022/01/27 02:55:14;;;;;;;76.65;23.40;;;;;;;-2.66;100.00;96540.19;4997121;28;20101;-76
2022/01/27 02:57:39;;;;;;;93.53;25.02;;;;;;;-2.80;100.00;96539.03;4991435;28;20112;-76
2022/01/27 03:00:06;;;;;;;71.00;23.25;;;;;;;-2.83;100.00;96548.84;5007122;28;20050;-76
2022/01/27 03:02:34;;;;;;;81.70;22.48;;;;;;;-2.91;100.00;96551.41;4991455;28;20500;-76
2022/01/27 03:05:00;;;;;;;70.80;22.25;;;;;;;-2.87;100.00;96537.25;4990430;28;20050;-76
2022/01/27 03:07:25;;;;;;;69.15;22.38;;;;;;;-2.88;100.00;96535.63;4999734;28;20053;-76
2022/01/27 03:09:51;;;;;;;81.80;23.35;;;;;;;-2.99;100.00;96529.84;4991625;28;20051;-76
2022/01/27 03:12:17;;;;;;;68.03;20.75;;;;;;;-2.98;100.00;96536.56;5003296;28;20050;-76
2022/01/27 03:14:43;;;;;;;78.70;22.42;;;;;;;-2.91;100.00;96521.31;4990372;28;20127;-76
2022/01/27 03:17:10;;;;;;;70.38;23.75;;;;;;;-2.91;100.00;96525.66;4991028;28;20110;-76
2022/01/27 03:19:37;;;;;;;73.22;22.95;;;;;;;-3.02;100.00;96524.97;4986284;28;20061;-77
2022/01/27 03:22:04;;;;;;;72.63;22.38;;;;;;;-3.01;100.00;96526.59;5008877;28;20046;-77
2022/01/27 03:24:30;;;;;;;74.47;22.40;;;;;;;-3.06;100.00;96523.72;4993796;28;20089;-77
2022/01/27 03:26:57;;;;;;;80.35;23.65;;;;;;;-3.14;100.00;96516.75;4992217;28;20038;-77
2022/01/27 03:29:23;;;;;;;56.25;19.80;;;;;;;-3.25;100.00;96508.53;4990640;28;20070;-76
2022/01/27 03:31:49;;;;;;;75.68;22.08;;;;;;;-3.28;100.00;96519.16;5006168;28;20042;-76
2022/01/27 03:34:15;;;;;;;70.53;22.80;;;;;;;-3.33;100.00;96512.69;4990719;28;20062;-76
2022/01/27 03:36:41;;;;;;;67.50;21.38;;;;;;;-3.34;100.00;96508.50;4989010;28;20511;-76
2022/01/27 03:39:10;;;;;;;75.20;23.60;;;;;;;-3.37;100.00;96511.41;4992195;28;20046;-75
2022/01/27 03:41:37;;;;;;;79.28;23.10;;;;;;;-3.40;100.00;96516.84;4982112;28;20047;-76
2022/01/27 03:44:05;;;;;;;68.40;21.17;;;;;;;-3.45;100.00;96524.22;4986301;28;20586;-76
2022/01/27 03:46:31;;;;;;;66.03;22.33;;;;;;;-3.40;100.00;96511.72;4990010;28;20046;-76
2022/01/27 03:48:57;;;;;;;66.70;21.50;;;;;;;-3.39;100.00;96497.88;4993213;28;20582;-76
2022/01/27 03:51:22;;;;;;;67.43;21.38;;;;;;;-3.41;100.00;96499.78;4990770;28;20117;-76
2022/01/27 03:53:48;;;;;;;63.38;21.10;;;;;;;-3.41;100.00;96502.38;4990800;28;20049;-76
2022/01/27 03:56:14;;;;;;;61.40;21.63;;;;;;;-3.41;100.00;96509.28;4990725;28;20042;-76
2022/01/27 03:58:39;;;;;;;62.65;20.80;;;;;;;-3.56;100.00;96509.06;4990881;28;20046;-75
2022/01/27 04:01:05;;;;;;;71.60;22.70;;;;;;;-3.72;100.00;96513.22;4990149;28;20095;-75
2022/01/27 04:03:35;;;;;;;73.95;23.67;;;;;;;-3.94;100.00;96518.91;4991104;28;20038;-75
2022/01/27 04:06:07;;;;;;;74.15;22.10;;;;;;;-4.02;100.00;96523.03;4992660;28;20384;-76
2022/01/27 04:08:37;;;;;;;73.63;21.88;;;;;;;-4.01;100.00;96521.25;5008402;28;20046;-76
2022/01/27 04:11:06;;;;;;;75.65;22.60;;;;;;;-3.81;100.00;96516.69;4982442;28;20420;-76
2022/01/27 04:13:32;;;;;;;73.50;21.30;;;;;;;-4.05;100.00;96514.81;4990482;28;20488;-76
2022/01/27 04:15:58;;;;;;;67.80;21.77;;;;;;;-3.79;100.00;96507.06;4990495;28;20046;-76
2022/01/27 04:18:23;;;;;;;65.00;21.15;;;;;;;-3.56;100.00;96496.19;4989333;28;20083;-76
2022/01/27 04:20:49;;;;;;;76.07;22.80;;;;;;;-3.42;100.00;96503.34;4990703;28;20100;-76
2022/01/27 04:23:14;;;;;;;60.80;20.42;;;;;;;-3.41;100.00;96489.50;5001649;28;20428;-76
2022/01/27 04:25:40;;;;;;;65.32;22.05;;;;;;;-3.39;100.00;96482.44;4991151;28;20745;-76
2022/01/27 04:28:09;;;;;;;68.80;20.67;;;;;;;-3.36;100.00;96482.13;4989529;28;20041;-74
2022/01/27 04:30:35;;;;;;;69.90;20.95;;;;;;;-3.29;100.00;96481.47;4990593;28;20046;-75
2022/01/27 04:33:03;;;;;;;60.88;19.25;;;;;;;-3.25;100.00;96477.63;4999051;28;20054;-76
2022/01/27 04:35:32;;;;;;;57.03;20.15;;;;;;;-3.22;100.00;96482.47;5004041;28;20042;-76
2022/01/27 04:45:54;;;;;;;60.58;20.48;;;;;;;-3.34;100.00;96480.19;4989410;28;20440;-74
2022/01/27 04:48:21;;;;;;;59.35;20.83;;;;;;;-3.33;100.00;96466.38;4988149;28;20584;-74
2022/01/27 04:50:47;;;;;;;55.88;19.80;;;;;;;-3.38;100.00;96458.28;4989960;28;20595;-75
2022/01/27 04:53:51;;;;;;;61.35;19.75;;;;;;;-3.35;100.00;96462.31;4989423;28;20117;-74
2022/01/27 04:56:07;;;;;;;66.70;21.10;;;;;;;-3.46;100.00;96453.16;4988415;28;20065;-73
2022/01/27 04:58:34;;;;;;;58.95;19.83;;;;;;;-3.44;100.00;96463.28;4989304;28;20030;-74
2022/01/27 05:01:02;;;;;;;71.70;21.40;;;;;;;-3.42;100.00;96459.59;4989597;28;20042;-74
2022/01/27 05:03:38;;;;;;;64.65;20.08;;;;;;;-3.45;100.00;96452.16;4989435;28;20547;-74
2022/01/27 05:06:04;;;;;;;59.15;19.40;;;;;;;-3.41;100.00;96455.25;4988984;28;20117;-74
2022/01/27 05:08:31;;;;;;;55.08;20.10;;;;;;;-3.39;100.00;96451.56;5002931;28;20039;-74
2022/01/27 05:11:03;;;;;;;63.63;21.55;;;;;;;-3.39;100.00;96461.84;4989074;28;20105;-74
2022/01/27 05:13:36;;;;;;;60.20;20.55;;;;;;;-3.46;100.00;96455.72;4988740;28;20046;-74
2022/01/27 05:16:02;;;;;;;57.95;19.40;;;;;;;-3.53;100.00;96449.59;4983635;28;20042;-76
2022/01/27 05:18:27;;;;;;;58.97;19.85;;;;;;;-3.50;100.00;96451.84;4988195;28;20046;-76
2022/01/27 05:20:53;;;;;;;52.58;18.67;;;;;;;-3.50;100.00;96449.28;4989158;28;20049;-75
2022/01/27 05:23:19;;;;;;;50.25;18.17;;;;;;;-3.42;100.00;96448.47;4989238;28;20050;-76
2022/01/27 05:25:46;;;;;;;52.30;19.45;;;;;;;-3.43;100.00;96441.72;4988390;28;20043;-76
2022/01/27 05:28:11;;;;;;;49.60;18.35;;;;;;;-3.59;100.00;96440.75;4989461;28;20064;-76
2022/01/27 05:30:37;;;;;;;55.58;19.42;;;;;;;-3.60;100.00;96428.03;4989425;28;20055;-76
2022/01/27 05:33:03;;;;;;;55.22;17.98;;;;;;;-3.50;100.00;96433.84;4989164;28;20042;-76
2022/01/27 05:35:29;;;;;;;55.22;18.73;;;;;;;-3.57;100.00;96428.50;4986320;28;20050;-75
2022/01/27 05:37:55;;;;;;;54.55;18.92;;;;;;;-3.69;100.00;96422.84;4988826;28;20079;-76
2022/01/27 05:40:20;;;;;;;52.47;18.80;;;;;;;-3.60;100.00;96422.88;4988925;28;20057;-76
2022/01/27 05:42:46;;;;;;;51.65;17.65;;;;;;;-3.69;100.00;96425.44;4989292;28;20038;-75
2022/01/27 05:45:12;;;;;;;47.42;18.98;;;;;;;-4.11;100.00;96426.25;4990144;28;20046;-76
2022/01/27 05:47:38;;;;;;;48.13;18.65;;;;;;;-3.89;100.00;96424.09;4990631;28;20512;-76
2022/01/27 05:50:04;;;;;;;54.95;18.33;;;;;;;-3.96;100.00;96425.69;5007118;28;20043;-76
2022/01/27 05:52:31;;;;;;;51.17;17.88;;;;;;;-4.04;100.00;96422.13;4992196;28;20046;-76
2022/01/27 05:54:57;;;;;;;51.45;18.48;;;;;;;-4.21;100.00;96420.41;4984283;28;20129;-77
2022/01/27 05:57:23;;;;;;;56.38;18.45;;;;;;;-4.16;100.00;96425.91;4992877;28;20046;-77
2022/01/27 05:59:48;;;;;;;57.13;19.75;;;;;;;-4.28;100.00;96429.69;4997760;28;20102;-77
2022/01/27 06:02:14;;;;;;;53.92;16.95;;;;;;;-3.97;100.00;96429.22;5001685;28;20050;-77
2022/01/27 06:04:40;;;;;;;53.25;18.92;;;;;;;-3.83;100.00;96423.47;4997433;28;20069;-76
2022/01/27 06:07:06;;;;;;;50.17;17.75;;;;;;;-3.77;100.00;96414.31;4991294;28;20039;-77
2022/01/27 06:09:31;;;;;;;48.38;18.42;;;;;;;-3.92;100.00;96414.09;4989515;28;20053;-77
2022/01/27 06:11:56;;;;;;;51.72;18.10;;;;;;;-3.78;100.00;96410.13;4994972;28;20139;-77
2022/01/27 06:14:22;;;;;;;52.67;19.08;;;;;;;-3.83;100.00;96408.03;5013522;28;20049;-76
2022/01/27 06:16:48;;;;;;;53.40;18.38;;;;;;;-3.98;100.00;96425.00;4999216;28;20566;-77
2022/01/27 06:19:14;;;;;;;54.22;20.77;;;;;;;-3.77;100.00;96417.69;4994892;28;20046;-77
2022/01/27 06:21:42;;;;;;;53.33;19.23;;;;;;;-3.75;100.00;96410.63;4997203;28;20054;-76
2022/01/27 06:24:08;;;;;;;46.10;17.83;;;;;;;-3.78;100.00;96400.63;5000379;28;20092;-77
2022/01/27 06:26:33;;;;;;;50.75;18.30;;;;;;;-3.75;100.00;96395.19;5003808;28;20039;-77
2022/01/27 06:28:59;;;;;;;51.38;18.17;;;;;;;-3.82;100.00;96401.94;4992513;28;20053;-78
2022/01/27 06:31:25;;;;;;;57.17;19.27;;;;;;;-4.01;100.00;96411.53;5000712;28;20042;-77
2022/01/27 06:33:52;;;;;;;47.47;17.67;;;;;;;-3.90;100.00;96409.63;4999804;28;20046;-77
2022/01/27 06:36:18;;;;;;;46.03;18.10;;;;;;;-3.75;100.00;96410.63;4992321;28;20424;-78
2022/01/27 06:38:44;;;;;;;54.92;17.27;;;;;;;-3.68;100.00;96411.63;4993696;28;20034;-78
2022/01/27 06:41:11;;;;;;;49.95;18.05;;;;;;;-3.74;100.00;96404.50;4996874;28;20042;-78
2022/01/27 06:43:37;;;;;;;50.25;18.55;;;;;;;-3.78;100.00;96416.06;4999840;28;20049;-81
2022/01/27 06:46:02;;;;;;;49.10;18.58;;;;;;;-3.88;100.00;96423.13;5003686;28;20042;-79
2022/01/27 06:48:28;;;;;;;50.70;18.02;;;;;;;-3.73;100.00;96419.00;4995653;28;20053;-79
2022/01/27 06:50:55;;;;;;;46.90;16.52;;;;;;;-3.73;100.00;96419.00;5001114;28;20046;-80
2022/01/27 06:53:21;;;;;;;46.65;17.45;;;;;;;-3.76;100.00;96419.31;5003552;28;20042;-79
2022/01/27 06:55:47;;;;;;;54.70;18.45;;;;;;;-3.77;100.00;96407.41;5002426;28;20042;-83
2022/01/27 06:58:13;;;;;;;50.05;18.33;;;;;;;-3.80;100.00;96406.91;5021479;28;20042;-81
2022/01/27 07:00:39;;;;;;;52.35;18.67;;;;;;;-3.89;100.00;96408.66;4999082;28;20069;-81
2022/01/27 07:03:04;;;;;;;49.35;17.60;;;;;;;-3.91;100.00;96405.44;4996561;28;20043;-81
2022/01/27 07:05:32;;;;;;;46.85;17.23;;;;;;;-3.86;100.00;96393.72;5000505;28;20052;-80
2022/01/27 07:07:58;;;;;;;48.72;17.48;;;;;;;-3.78;100.00;96397.28;5003402;28;20046;-81
2022/01/27 07:10:24;;;;;;;45.85;18.45;;;;;;;-3.80;100.00;96392.28;4994771;28;20062;-81
2022/01/27 07:12:50;;;;;;;42.58;16.27;;;;;;;-3.91;100.00;96390.00;5001297;28;20575;-80
2022/01/27 07:15:15;;;;;;;46.28;18.05;;;;;;;-4.03;100.00;96398.00;5010529;28;20039;-81
2022/01/27 07:17:41;;;;;;;51.92;17.40;;;;;;;-4.12;100.00;96403.25;5004055;28;20101;-81
2022/01/27 07:20:07;;;;;;;52.90;18.77;;;;;;;-4.14;100.00;96394.91;5001296;28;20109;-80
2022/01/27 07:22:35;;;;;;;54.70;17.30;;;;;;;-3.77;100.00;96397.09;4997363;28;20058;-83
2022/01/27 07:25:02;;;;;;;56.75;17.30;;;;;;;-3.75;100.00;96400.34;4997265;28;20319;-82
2022/01/27 07:27:28;;;;;;;54.63;18.77;;;;;;;-3.92;100.00;96398.66;4998332;28;20100;-81
2022/01/27 07:29:54;;;;;;;56.28;18.20;;;;;;;-3.68;100.00;96396.19;4996819;28;20039;-82
2022/01/27 07:32:19;;;;;;;46.83;17.60;;;;;;;-3.58;100.00;96388.28;4997134;28;20064;-82
2022/01/27 07:34:45;;;;;;;45.90;17.42;;;;;;;-3.54;100.00;96386.22;4994606;28;20069;-82
2022/01/27 07:37:10;;;;;;;49.75;17.55;;;;;;;-3.46;100.00;96383.66;4993892;28;20049;-81
2022/01/27 07:39:36;;;;;;;46.55;15.70;;;;;;;-3.41;100.00;96391.69;4995855;28;20158;-80
2022/01/27 07:42:02;;;;;;;45.85;17.33;;;;;;;-3.39;100.00;96394.94;5013010;28;20188;-79
2022/01/27 07:44:28;;;;;;;46.90;16.00;;;;;;;-3.50;100.00;96397.81;4997657;28;20053;-79
2022/01/27 07:46:55;;;;;;;44.53;16.30;;;;;;;-3.39;100.00;96400.09;4996545;28;20121;-79
2022/01/27 07:49:22;;;;;;;44.35;16.45;;;;;;;-3.29;100.00;96394.75;4992108;28;20053;-77
2022/01/27 07:51:47;;;;;;;41.90;16.13;;;;;;;-3.18;100.00;96391.06;5002109;28;20065;-78
2022/01/27 07:54:13;;;;;;;44.75;15.73;;;;;;;-3.18;100.00;96391.06;4995846;28;20109;-79
2022/01/27 07:56:39;;;;;;;41.35;14.10;;;;;;;-3.06;100.00;96394.94;5008838;28;20085;-78
2022/01/27 07:59:04;;;;;;;40.22;15.68;;;;;;;-2.99;100.00;96395.91;4996536;28;20042;-78
2022/01/27 08:01:30;;;;;;;43.17;15.57;;;;;;;-3.11;100.00;96404.13;4993368;28;20432;-78
2022/01/27 08:03:56;;;;;;;38.70;16.40;;;;;;;-2.92;100.00;96400.41;4996455;28;20109;-78
2022/01/27 08:06:21;;;;;;;44.40;15.43;;;;;;;-2.83;100.00;96404.56;4997112;28;20117;-79
2022/01/27 08:08:48;;;;;;;42.25;14.50;;;;;;;-2.76;100.00;96402.94;4997400;28;20047;-79
2022/01/27 08:11:14;;;;;;;42.17;15.43;;;;;;;-2.66;100.00;96407.94;4996014;28;20054;-79
2022/01/27 08:13:39;;;;;;;42.83;14.70;;;;;;;-2.56;99.83;96410.34;4996581;28;20101;-79
2022/01/27 08:16:05;;;;;;;35.22;14.00;;;;;;;-2.44;99.25;96403.88;4996841;28;20046;-80
2022/01/27 08:18:31;;;;;;;42.00;15.50;;;;;;;-2.37;99.15;96407.41;4994102;28;20061;-78
2022/01/27 08:20:56;;;;;;;30.70;12.85;;;;;;;-2.26;99.16;96401.06;4998784;28;20046;-79
2022/01/27 08:23:22;;;;;;;41.53;14.57;;;;;;;-2.14;99.23;96410.06;4996278;28;20046;-79
2022/01/27 08:25:53;;;;;;;33.67;14.23;;;;;;;-2.03;98.60;96398.56;4994660;28;20101;-79
2022/01/27 08:28:31;;;;;;;36.97;13.60;;;;;;;-1.90;97.44;96399.81;4993023;28;20039;-79
2022/01/27 08:30:58;;;;;;;38.65;15.35;;;;;;;-1.88;98.73;96397.84;4990995;28;20038;-80
2022/01/27 08:33:28;;;;;;;35.50;13.13;;;;;;;-1.83;97.85;96390.41;4990455;28;20042;-78
2022/01/27 08:35:53;;;;;;;31.17;13.98;;;;;;;-1.78;98.17;96393.28;4992852;28;20104;-80
2022/01/27 08:38:19;;;;;;;37.75;14.50;;;;;;;-1.65;96.73;96383.22;4992796;28;20193;-79
2022/01/27 08:40:45;;;;;;;29.40;11.88;;;;;;;-1.43;94.25;96388.56;4989672;28;20042;-81
2022/01/27 08:43:11;;;;;;;28.13;11.13;;;;;;;-1.28;92.55;96379.09;5005599;28;20551;-80
2022/01/27 08:45:39;;;;;;;24.58;10.88;;;;;;;-1.18;92.57;96372.88;4987592;28;20133;-82
2022/01/27 08:48:06;;;;;;;25.58;10.50;;;;;;;-1.03;91.79;96376.31;4990982;28;20049;-79
2022/01/27 08:50:32;;;;;;;29.67;11.98;;;;;;;-1.06;93.38;96381.84;4992419;28;20056;-79
2022/01/27 08:52:58;;;;;;;29.25;11.73;;;;;;;-1.16;94.25;96387.25;4997805;28;20716;-78
2022/01/27 08:55:24;;;;;;;23.98;10.23;;;;;;;-1.00;92.83;96391.47;4990325;28;20045;-78
2022/01/27 08:57:50;;;;;;;24.88;10.27;;;;;;;-0.74;90.77;96379.94;4991285;28;20516;-78
2022/01/27 09:00:19;;;;;;;24.08;10.35;;;;;;;-0.45;88.63;96383.53;4993100;28;20134;-78
2022/01/27 09:02:46;;;;;;;24.42;10.07;;;;;;;-0.32;88.36;96378.53;4991813;28;20046;-79
2022/01/27 09:05:12;;;;;;;25.60;10.65;;;;;;;-0.13;87.30;96381.53;4991977;28;20683;-78
2022/01/27 09:07:38;;;;;;;21.02;8.80;;;;;;;-0.02;85.72;96373.31;4993940;28;20046;-81
2022/01/27 09:10:05;;;;;;;29.92;10.38;;;;;;;0.19;85.73;96371.75;4986517;28;20042;-78
2022/01/27 09:12:31;;;;;;;23.42;9.38;;;;;;;0.41;84.77;96373.41;4993679;28;20038;-78
2022/01/27 09:14:58;;;;;;;24.42;9.38;;;;;;;0.52;83.52;96372.94;4998079;28;20050;-77
2022/01/27 09:17:26;;;;;;;17.65;7.68;;;;;;;0.76;81.75;96365.78;4995736;28;20039;-78
2022/01/27 09:19:53;;;;;;;22.77;9.38;;;;;;;0.69;85.76;96359.75;4992049;28;20054;-79
2022/01/27 09:22:19;;;;;;;20.85;8.98;;;;;;;0.47;87.79;96362.31;4995292;28;20101;-79
2022/01/27 09:27:19;;;;;;;15.50;6.68;;;;;;;1.02;77.28;96359.19;4998767;28;20051;-79
2022/01/27 09:29:47;;;;;;;15.60;6.68;;;;;;;1.23;79.98;96354.97;5009135;28;20030;-78
2022/01/27 09:32:14;;;;;;;14.10;6.18;;;;;;;1.43;76.29;96355.91;5003383;28;20049;-78
2022/01/27 09:34:40;;;;;;;14.57;5.63;;;;;;;1.48;74.39;96348.34;5006202;28;20046;-79
2022/01/27 09:37:06;;;;;;;12.98;5.65;;;;;;;1.56;74.49;96347.38;5001263;28;20034;-78
2022/01/27 09:39:33;;;;;;;13.63;6.10;;;;;;;1.82;74.03;96348.50;5000379;28;20042;-75
2022/01/27 09:42:01;;;;;;;17.00;5.40;;;;;;;1.81;74.72;96347.72;5008662;28;20072;-78
2022/01/27 09:44:30;;;;;;;20.02;5.35;;;;;;;2.07;70.78;96354.03;4997525;28;20046;-77
2022/01/27 09:47:02;;;;;;;17.27;5.38;;;;;;;2.03;72.56;96345.00;4999112;28;20314;-78
2022/01/27 09:52:17;;;;;;;13.70;4.22;;;;;;;2.76;66.27;96346.97;5005348;28;20081;-78
2022/01/27 09:54:45;;;;;;;11.45;4.47;;;;;;;2.84;67.38;96341.56;5002342;28;20042;-78
2022/01/27 09:57:15;;;;;;;9.05;3.53;;;;;;;3.19;64.72;96341.38;4996500;28;20046;-78
2022/01/27 09:59:42;;;;;;;7.55;3.63;;;;;;;4.86;57.57;96332.03;4992125;28;20125;-77
2022/01/27 10:02:09;;;;;;;7.50;3.30;;;;;;;6.20;54.91;96330.72;4992456;28;20046;-77
2022/01/27 10:04:49;;;;;;;13.13;3.72;;;;;;;6.72;48.84;96327.59;4992974;28;20049;-78
2022/01/27 10:07:20;;;;;;;11.30;3.42;;;;;;;7.04;47.78;96325.47;4994974;28;20046;-77
2022/01/27 10:09:59;;;;;;;6.60;3.45;;;;;;;8.43;45.93;96309.16;4988768;28;20043;-75
2022/01/27 10:12:32;;;;;;;5.18;2.50;;;;;;;8.37;44.10;96305.63;4992372;28;20053;-75
2022/01/27 10:15:00;;;;;;;6.50;2.78;;;;;;;8.91;43.39;96307.09;4988215;28;20125;-76
2022/01/27 10:17:26;;;;;;;8.60;2.83;;;;;;;8.86;40.70;96301.75;4995028;28;20054;-76
2022/01/27 10:19:53;;;;;;;6.30;2.63;;;;;;;9.18;42.13;96300.16;4988843;28;20468;-77
2022/01/27 10:22:19;;;;;;;8.98;2.75;;;;;;;9.71;40.81;96302.41;5000523;28;20038;-77
2022/01/27 10:24:45;;;;;;;5.80;2.60;;;;;;;9.11;39.55;96304.00;4992864;28;20053;-77
2022/01/27 10:28:10;;;;;;;7.72;2.80;;;;;;;9.93;37.81;96296.38;4992020;28;20038;-76
2022/01/27 10:32:54;;;;;;;10.48;2.75;;;;;;;10.37;38.23;96293.72;4993627;28;20105;-76
2022/01/27 10:35:22;;;;;;;10.27;2.83;;;;;;;10.17;36.78;96287.19;4998780;28;20041;-76
2022/01/27 10:37:58;;;;;;;6.43;2.42;;;;;;;10.42;36.87;96285.88;4990198;28;20046;-76
2022/01/27 10:40:29;;;;;;;7.28;2.40;;;;;;;10.36;36.44;96281.63;4991654;28;20461;-76
2022/01/27 10:43:07;;;;;;;6.18;2.30;;;;;;;10.80;37.24;96278.81;4991309;28;20042;-76
2022/01/27 10:45:33;;;;;;;8.23;2.53;;;;;;;11.01;36.62;96281.63;5003295;28;20488;-76
2022/01/27 10:48:29;;;;;;;5.65;2.42;;;;;;;10.54;35.34;96273.38;4991547;28;20035;-76
2022/01/27 10:51:14;;;;;;;4.97;2.60;;;;;;;11.85;34.80;96269.44;4987140;28;20057;-76
2022/01/27 10:54:04;;;;;;;4.90;2.40;;;;;;;13.29;31.84;96266.94;4995102;28;20100;-76
2022/01/27 10:56:35;;;;;;;9.82;2.40;;;;;;;12.95;32.36;96262.22;4991549;28;20046;-76
2022/01/27 10:59:04;;;;;;;5.45;2.53;;;;;;;13.05;31.21;96279.13;4990265;28;20095;-76
2022/01/27 11:01:37;;;;;;;6.95;2.47;;;;;;;13.65;30.83;96266.84;4989098;28;20065;-76
2022/01/27 11:04:05;;;;;;;5.95;2.58;;;;;;;13.18;30.13;96262.72;4985318;28;20096;-76
2022/01/27 11:06:33;;;;;;;8.35;2.75;;;;;;;13.68;32.50;96261.03;5004431;28;20122;-76
2022/01/27 11:09:07;;;;;;;13.52;2.97;;;;;;;15.09;29.45;96264.41;4989384;28;20042;-76
2022/01/27 11:11:34;;;;;;;7.35;2.50;;;;;;;14.65;29.67;96256.28;4988850;28;20042;-76
2022/01/27 11:14:00;;;;;;;10.63;2.70;;;;;;;13.95;29.14;96259.88;4988894;28;20489;-76
2022/01/27 11:16:35;;;;;;;5.95;2.42;;;;;;;13.93;28.60;96248.75;4990832;28;20038;-76
2022/01/27 11:19:17;;;;;;;8.88;2.55;;;;;;;15.18;29.21;96252.13;4992417;28;20046;-76
2022/01/27 11:21:47;;;;;;;8.20;2.30;;;;;;;15.23;27.56;96239.59;4993514;28;20054;-75
2022/01/27 11:24:25;;;;;;;5.63;2.35;;;;;;;13.80;26.96;96236.13;4989150;28;20074;-75
2022/01/27 11:26:54;;;;;;;8.07;2.50;;;;;;;14.40;26.73;96232.59;4988580;28;20049;-74
2022/01/27 11:29:23;;;;;;;10.43;2.50;;;;;;;14.16;27.50;96238.56;4992165;28;20101;-75
2022/01/27 11:32:16;;;;;;;17.52;2.85;;;;;;;14.34;26.67;96240.56;4986774;28;20118;-74
2022/01/27 11:34:53;;;;;;;4.63;2.22;;;;;;;13.80;26.77;96220.25;4996994;28;20431;-76
2022/01/27 11:37:33;;;;;;;6.10;2.35;;;;;;;15.15;25.88;96211.03;4990369;28;20108;-76
2022/01/27 11:40:07;;;;;;;6.20;2.42;;;;;;;14.75;25.52;96206.94;4984264;28;20091;-76
2022/01/27 11:42:37;;;;;;;7.32;2.40;;;;;;;14.49;26.69;96210.53;4989397;28;20061;-76
2022/01/27 11:45:40;;;;;;;4.95;2.22;;;;;;;13.27;27.09;96212.75;4991378;28;20061;-75
2022/01/27 11:48:22;;;;;;;6.68;2.20;;;;;;;13.77;26.46;96204.91;4972043;28;20138;-76
2022/01/27 11:51:09;;;;;;;4.18;2.10;;;;;;;13.90;26.63;96199.03;4996088;28;20050;-75
2022/01/27 11:53:56;;;;;;;7.18;2.40;;;;;;;14.35;26.33;96189.22;4991915;28;20726;-76
2022/01/27 11:56:27;;;;;;;7.53;2.63;;;;;;;15.06;26.47;96202.91;4999031;28;20050;-75
2022/01/27 11:58:55;;;;;;;10.32;2.75;;;;;;;14.49;26.41;96193.88;4990150;28;20053;-76
2022/01/27 12:01:29;;;;;;;11.82;3.72;;;;;;;15.07;25.58;96201.06;4987216;28;20084;-74
2022/01/27 12:04:05;;;;;;;8.23;3.10;;;;;;;13.74;27.85;96184.31;4993387;28;20057;-74
2022/01/27 12:06:36;;;;;;;6.53;2.90;;;;;;;13.67;27.83;96195.19;4987561;28;20046;-76
2022/01/27 12:09:19;;;;;;;10.25;3.15;;;;;;;13.83;28.14;96201.19;4986780;28;20043;-75
2022/01/27 12:12:02;;;;;;;9.93;2.85;;;;;;;14.19;27.73;96185.88;5001863;28;20053;-75
2022/01/27 12:14:34;;;;;;;6.70;3.10;;;;;;;14.35;27.52;96189.22;4989233;28;20069;-74
2022/01/27 12:17:08;;;;;;;7.30;3.00;;;;;;;13.79;29.51;96192.19;4989421;28;20420;-76
2022/01/27 12:19:52;;;;;;;;;;;;;;;13.66;28.35;96189.09;4989330;28;20042;-75
2022/01/27 12:22:19;;;;;;;7.53;2.70;;;;;;;13.97;27.29;96188.91;4988491;28;19926;-75